Tonopah, Nevada Weather observations

Data are for observation ending at time listed.
 Day   Time    Ave.   Ave.  Ave.  Vector   Max.   Stn.    Total    Solar   Ave.  
  of    of     Air    Rel.  Wind   Wind    Wind   Baro.  Precip.   Rad.    Soil  
Year   Day     Temp.  Hum.  Speed  Dir.    Gust   Pres.                    Temp. 
2014   (PST)    F      %     mph   deg.    mph     mb.     in.     W/m2     F   
------------------------------------------------------------------------------
 241    4:30   60.0    28    2.5   124      3.4   814.9    0.00       0    74.0
 241    4:40   59.9    28    2.8   131      3.6   814.9    0.00       0    73.9
 241    4:50   59.3    29    2.9   121      3.8   815.0    0.00       0    73.8
 241    5:00   60.0    28    2.9   138      3.7   815.0    0.00       0    73.6
 241    5:10   60.1    28    2.7   147      3.4   815.1    0.00       2    73.5
 241    5:20   59.5    28    2.1   140      3.4   815.1    0.00       6    73.4
 241    5:30   60.0    28    2.5   136      3.7   815.2    0.00      13    73.2
 241    5:40   60.8    27    2.3   138      3.5   815.3    0.00      22    73.1
 241    5:50   61.8    26    3.0   154      4.8   815.4    0.00      35    73.0
 241    6:00   64.8    24    1.5   139      3.3   815.5    0.00     101    72.9
 241    6:10   67.3    23    1.3   137      3.0   815.5    0.00     143    72.8
 241    6:20   69.6    22    0.4   129      2.9   815.5    0.00     162    72.7
 241    6:30   69.3    21    1.9   114      3.7   815.6    0.00     170    72.6
 241    6:40   70.8    20    0.9   105      3.4   815.5    0.00     294    72.5
 241    6:50   70.6    20    4.2   109      7.7   815.5    0.00     280    72.5
 241    7:00   69.3    21    4.0    89      6.7   815.5    0.00     208    72.5
 241    7:10   68.9    21    2.9    92      5.2   815.6    0.00     166    72.5
 241    7:20   68.8    21    2.4    92      5.4   815.7    0.00     171    72.6
 241    7:30   69.5    21    1.4   102      3.0   815.7    0.00     226    72.6
 241    7:40   71.6    20    0.2   104      1.1   815.7    0.00     292    72.7
 241    7:50   73.8    18    0.2   103      1.2   815.7    0.00     381    72.8
 241    8:00   73.6    18    0.3   104      1.2   815.6    0.00     361    72.9
 241    8:10   73.6    19    1.6    26      5.6   815.6    0.00     366    73.0
 241    8:20   73.8    18    1.7    10      4.7   815.7    0.00     628    73.2
 241    8:30   75.6    17    1.3    14      4.7   815.8    0.00     400    73.3
 241    8:40   75.1    18    2.7    26      5.0   815.7    0.00     677    73.5
 241    8:50   76.6    17    2.0    40      4.4   815.7    0.00     518    73.8
 241    9:00   76.4    17    2.3    18      5.4   815.8    0.00     686    74.0
 241    9:10   78.3    16    1.9    58      5.0   815.8    0.00     821    74.3
 241    9:20   78.0    16    1.3   161      4.5   815.8    0.00     626    74.6
 241    9:30   78.7    15    1.3    30      4.2   815.9    0.00     634    74.9
 241    9:40   78.5    16    2.7    38     10.2   815.7    0.00     775    75.3
 241    9:50   78.9    15    2.5    77      6.4   815.7    0.00     695    75.6
 241   10:00   80.6    14    2.6   108      7.0   815.7    0.00     967    75.9
 241   10:10   80.1    14    2.4   126      7.7   815.5    0.00     408    76.3
 241   10:20   80.5    14    3.4   313      8.5   815.5    0.00     710    76.7
 241   10:30   81.9    14    1.9   256      7.4   815.5    0.00     997    77.1
 241   10:40   82.2    13    3.5    86      7.2   815.3    0.00     789    77.5
 241   10:50   81.3    13    6.6   169     13.2   815.2    0.00     991    77.8
 241   11:00   81.9    13    8.0   172     13.2   815.2    0.00     949    78.2
 241   11:10   81.4    13    6.5   180     13.7   815.1    0.00     554    78.6
 241   11:20   82.2    12    8.4   159     17.2   815.0    0.00     790    79.1
 241   11:30   82.1    12    5.9   169     14.9   814.9    0.00     858    79.5
 241   11:40   83.0    12    5.5   168     10.8   814.8    0.00     675    79.8
 241   11:50   82.7    12    5.9   161     12.7   814.7    0.00     573    80.2
 241   12:00   82.2    12    8.3   191     13.7   814.7    0.00     560    80.6
 241   12:10   82.4    12    5.2   183     11.4   814.6    0.00     746    80.9
 241   12:20   82.3    12    5.6   196     14.0   814.5    0.00     449    81.2
 241   12:30   82.5    12    4.1   166     11.0   814.4    0.00     614    81.5
 241   12:40   83.6    12    3.0   233      7.4   814.4    0.00     794    81.7
 241   12:50   84.6    11    6.9   179     12.9   814.1    0.00     946    82.0
 241   13:00   85.0    11    4.9   214     13.7   814.1    0.00     965    82.2
 241   13:10   84.3    12    5.5   196     14.3   814.1    0.00     408    82.4
 241   13:20   84.0    12    5.9   193     16.1   813.9    0.00     444    82.6
 241   13:30   83.4    12    8.9   153     19.4   813.7    0.00     307    82.9
 241   13:40   83.2    12    5.5   181     14.1   813.6    0.00     366    83.1
 241   13:50   83.8    12    7.4   156     14.3   813.6    0.00     628    83.4
 241   14:00   85.2    11    4.8   179     17.2   813.4    0.00     860    83.6
 241   14:10   86.1    11    4.8   198     16.4   813.2    0.00     681    83.7
 241   14:20   84.9    11    5.1   155     11.5   813.2    0.00     290    83.8
 241   14:30   84.1    11    7.1   165     12.9   813.1    0.00     285    83.8
 241   14:40   83.7    11    6.4   174     13.2   813.1    0.00     382    83.9
 241   14:50   84.5    11    6.1   161     12.2   813.1    0.00     452    84.1
 241   15:00   85.1    10    5.9   222     12.5   813.1    0.00     748    84.2
 241   15:10   85.8    10    6.4   143     13.6   813.1    0.00     760    84.3
 241   15:20   85.5    10    5.6   153      9.9   813.1    0.00     648    84.3
 241   15:30   85.9    10    4.3   162     11.5   813.0    0.00     667    84.4
 241   15:40   85.9    10    7.0   147     11.5   812.9    0.00     582    84.5
 241   15:50   85.9    10    5.4   171     13.0   812.8    0.00     554    84.5
 241   16:00   85.9    10    5.9   230     16.7   812.8    0.00     407    84.6
 241   16:10   85.7    10    6.0   244     11.1   812.8    0.00     304    84.6
 241   16:20   84.2    10    6.5   218     13.1   812.7    0.00     223    84.6
 241   16:30   84.9    10    3.5   217      8.0   812.6    0.00     431    84.6
 241   16:40   85.4    10    5.1   172      9.0   812.6    0.00     293    84.6
 241   16:50   84.1    10    5.2   168      9.1   812.6    0.00     126    84.6
 241   17:00   83.7    10    3.7   179      6.8   812.5    0.00     101    84.6
 241   17:10   83.3    11    5.0   188      7.9   812.5    0.00     118    84.5
 241   17:20   83.1    11    4.9   159      9.0   812.4    0.00      96    84.4
 241   17:30   82.8    11    3.6   152      5.6   812.4    0.00      62    84.3
 241   17:40   82.4    11    2.3   160      4.6   812.4    0.00      54    84.2
 241   17:50   82.6    11    2.5   171      5.4   812.4    0.00      60    84.1
 241   18:00   82.4    11    3.0   147      5.1   812.4    0.00      31    83.9
 241   18:10   81.3    12    3.3   153      5.7   812.4    0.00      22    83.8
 241   18:20   80.2    12    3.9   155      5.6   812.5    0.00       7    83.6
 241   18:30   79.9    12    3.8   144      7.9   812.5    0.00       2    83.5
 241   18:40   79.5    12    4.5   152      8.5   812.5    0.00       0    83.3
 241   18:50   79.1    12    4.1   159      8.0   812.6    0.00       0    83.2
 241   19:00   78.6    12    4.4   159      7.5   812.6    0.00       0    83.0
 241   19:10   78.5    13    5.2   166      9.3   812.7    0.00       0    82.8
 241   19:20   78.2    13    3.7   166      6.4   812.8    0.00       0    82.7
 241   19:30   77.4    13    2.0   163      5.8   812.9    0.00       0    82.5
 241   19:40   77.6    13    2.4   171      6.8   812.9    0.00       0    82.3
 241   19:50   77.6    13    4.0   137      8.3   813.1    0.00       0    82.2
 241   20:00   77.5    13    3.6   149      8.0   813.1    0.00       0    82.0
 241   20:10   78.5    13    5.0   280     18.5   813.1    0.00       0    81.8
 241   20:20   78.7    13    6.1   281     15.1   813.3    0.00       0    81.6
 241   20:30   77.1    14    5.4   248     10.9   813.3    0.00       0    81.4
 241   20:40   75.0    16    2.5   246      6.0   813.3    0.00       0    81.3
 241   20:50   74.0    17    3.6   252      6.1   813.4    0.00       0    81.1
 241   21:00   73.4    19    4.7   245      8.4   813.4    0.00       0    81.0
 241   21:10   73.4    19    4.1   274      8.6   813.5    0.00       0    80.8
 241   21:20   73.1    20    2.4   318      4.4   813.5    0.00       0    80.6
 241   21:30   72.6    20    3.2   304      6.4   813.5    0.00       0    80.5
 241   21:40   72.7    20    3.9   269      7.9   813.4    0.00       0    80.3
 241   21:50   72.4    20    2.9   281      6.7   813.4    0.00       0    80.1
 241   22:00   72.3    20    5.3   255      8.2   813.4    0.00       0    79.9
 241   22:10   71.2    21    3.9   270      8.8   813.4    0.00       0    79.8
 241   22:20   70.7    21    2.4   297      4.7   813.4    0.00       0    79.6
 241   22:30   70.6    21    2.5   302      3.7   813.5    0.00       0    79.4
 241   22:40   70.5    20    2.3   299      5.6   813.4    0.00       0    79.2
 241   22:50   70.3    20    2.0   298      4.2   813.4    0.00       0    79.1
 241   23:00   69.7    20    3.7   287      8.3   813.4    0.00       0    78.9
 241   23:10   70.5    19    5.7   284      9.7   813.4    0.00       0    78.8
 241   23:20   69.9    20    3.3   300      6.4   813.5    0.00       0    78.6
 241   23:30   68.6    21    2.3   300      3.4   813.4    0.00       0    78.4
 241   23:40   68.2    21    2.5   291      3.4   813.4    0.00       0    78.3
 241   23:50   67.7    22    2.8   293      3.9   813.5    0.00       0    78.1
 242    0:00   67.4    22    3.0   296      4.7   813.5    0.00       0    78.0
 242    0:10   67.5    22    2.7   296      4.2   813.5    0.00       0    77.8
 242    0:20   67.0    22    2.4   302      3.4   813.4    0.00       0    77.7
 242    0:30   67.0    22    2.6   305      3.2   813.4    0.00       0    77.5
 242    0:40   67.1    22    2.7   303      4.7   813.3    0.00       0    77.4
 242    0:50   66.9    22    2.7   304      4.1   813.2    0.00       0    77.2
 242    1:00   66.5    23    2.6   300      4.3   813.1    0.00       0    77.1
 242    1:10   66.5    23    2.9   302      5.0   813.1    0.00       0    76.9
 242    1:20   66.5    23    3.4   304      4.8   813.1    0.00       0    76.8
 242    1:30   66.5    23    3.6   298      4.9   813.2    0.00       0    76.6
 242    1:40   67.1    22    3.5   291      5.6   813.2    0.00       0    76.5
 242    1:50   66.8    23    3.8   298      8.3   813.2    0.00       0    76.4
 242    2:00   66.8    23    4.4   296      7.1   813.2    0.00       0    76.2
 242    2:10   67.2    22    4.9   285      7.8   813.1    0.00       0    76.1
 242    2:20   66.0    24    3.6   308      5.9   813.1    0.00       0    76.0
 242    2:30   64.8    24    3.6   306      4.5   813.0    0.00       0    75.9
 242    2:40   64.1    25    3.5   293      4.7   813.1    0.00       0    75.8
 242    2:50   64.7    25    4.8   286      8.1   813.0    0.00       0    75.6
 242    3:00   65.2    25    4.5   284      7.0   813.0    0.00       0    75.5
 242    3:10   65.6    25    5.1   283      7.0   813.0    0.00       0    75.4
 242    3:20   65.2    26    3.9   297      6.7   813.0    0.00       0    75.3
 242    3:30   64.7    26    3.7   302      5.4   813.0    0.00       0    75.2
 242    3:40   64.3    27    3.8   304      5.0   812.9    0.00       0    75.1
 242    3:50   63.7    28    3.9   303      5.6   812.9    0.00       0    75.0
 242    4:00   64.0    27    3.6   299      5.8   812.9    0.00       0    74.9
 242    4:10   64.5    27    4.6   297      6.4   813.0    0.00       0    74.8
 242    4:20   64.6    27    4.2   294      6.3   813.1    0.00       0    74.7

Return to Tonopah, Nevada graphs page.


Western Regional Climate Center,wrcc@dri.edu